MSC Istanbul — D5LL2 — position and weather

sailwx.info

Track history (hours):
 
Tides and Currents Weather Stations Pressure Air Temp Water Temp Dewpoint Dewpoint Depression Visibility Wind Speed Wind Dir Waves Ship Positions

MSC Istanbul

Last reported at 2018-Jun-21 15:35 UTC. Time now 2018-Jun-23 10:06 UTC.
Position N 24°24' E 118°53'.

Length 399 m; draft 8.8 m.

Type: Cargo ship. MMSI: 636017537.

Date/timePositionNaut miles runAvg speedWind from/ knotsBaromVisibWave heightAir tempDewpointWater temp
2018-Jun-21 15:35N 24°24' E 118°53'420.6
2018-Jun-21 15:25N 24°22' E 118°50'820.2
2018-Jun-21 15:00N 24°18' E 118°43'918.5
2018-Jun-21 14:30N 24°13' E 118°34'918.7
2018-Jun-21 14:00N 24°09' E 118°25'816.8
2018-Jun-21 13:31N 24°13' E 118°17'714.0
2018-Jun-21 13:00N 24°18' E 118°12'612.3
2018-Jun-21 12:30N 24°23' E 118°07'610.8
2018-Jun-21 12:00N 24°26' E 118°02'1 1.4
2018-Jun-21 11:30N 24°26' E 118°02'0 0.1
2018-Jun-21 11:00N 24°26' E 118°02'0 0.0
2018-Jun-21 10:29N 24°26' E 118°02'0 0.0
2018-Jun-21 09:59N 24°26' E 118°02'0 0.0
2018-Jun-21 09:29N 24°26' E 118°02'0 0.0
2018-Jun-21 08:59N 24°26' E 118°02'0 0.0
2018-Jun-21 08:29N 24°26' E 118°02'0 0.1
2018-Jun-21 07:59N 24°26' E 118°02'0 0.1
2018-Jun-21 07:29N 24°26' E 118°02'0 0.1
2018-Jun-21 06:59N 24°26' E 118°02'0 0.1
2018-Jun-21 06:29N 24°26' E 118°02'0 0.0
2018-Jun-21 05:59N 24°26' E 118°02'0 0.0
2018-Jun-21 05:29N 24°26' E 118°02'0 0.1
2018-Jun-21 04:59N 24°26' E 118°02'0 0.1
2018-Jun-21 04:29N 24°26' E 118°02'0 0.0
2018-Jun-21 03:59N 24°26' E 118°02'0 0.1
2018-Jun-21 03:26N 24°26' E 118°02'0 0.1
2018-Jun-21 02:56N 24°26' E 118°02'0 0.0
2018-Jun-21 02:29N 24°26' E 118°02'0 0.0
2018-Jun-21 01:59N 24°26' E 118°02'0 0.0
2018-Jun-21 01:29N 24°26' E 118°02'0 0.1
2018-Jun-21 00:59N 24°26' E 118°02'0 0.0
2018-Jun-21 00:29N 24°26' E 118°02'0 0.0
2018-Jun-20 23:59N 24°26' E 118°02'0 0.1
2018-Jun-20 23:26N 24°26' E 118°02'0 0.1
2018-Jun-20 22:59N 24°26' E 118°02'0 0.1
2018-Jun-20 22:29N 24°26' E 118°02'0 0.0
2018-Jun-20 21:59N 24°26' E 118°02'0 0.0
2018-Jun-20 21:29N 24°26' E 118°02'0 0.0
2018-Jun-20 20:59N 24°26' E 118°02'0 0.0
2018-Jun-20 20:29N 24°26' E 118°02'0 0.0
2018-Jun-20 19:59N 24°26' E 118°02'0 0.1
2018-Jun-20 19:29N 24°26' E 118°02'0 0.0
2018-Jun-20 18:59N 24°26' E 118°02'0 0.1
2018-Jun-20 18:29N 24°26' E 118°02'0 0.0
2018-Jun-20 17:59N 24°26' E 118°02'0 0.0
2018-Jun-20 17:29N 24°26' E 118°02'0 0.1
2018-Jun-20 16:59N 24°26' E 118°02'0 0.0
2018-Jun-20 16:29N 24°26' E 118°02'0 0.1
2018-Jun-20 15:59N 24°26' E 118°02'0 0.2
2018-Jun-20 15:30N 24°26' E 118°02'2 4.7
2018-Jun-20 15:00N 24°25' E 118°04'5 9.6
2018-Jun-20 14:30N 24°22' E 118°08'510.9
2018-Jun-20 14:00N 24°18' E 118°12'510.0
2018-Jun-20 13:30N 24°15' E 118°16'611.0
2018-Jun-20 13:00N 24°11' E 118°20'510.3
2018-Jun-20 12:30N 24°07' E 118°24'4 7.4
2018-Jun-20 12:00N 24°04' E 118°27'1 1.1
2018-Jun-20 11:30N 24°04' E 118°27'1 1.1
2018-Jun-20 10:59N 24°03' E 118°27'1 1.2
2018-Jun-20 10:30N 24°03' E 118°27'1 1.3
2018-Jun-20 10:00N 24°02' E 118°27'1 1.5
2018-Jun-20 09:30N 24°01' E 118°27'1 1.6
2018-Jun-20 09:00N 24°01' E 118°26'2 4.5
2018-Jun-20 08:30N 24°03' E 118°26'5 8.9
2018-Jun-20 08:00N 24°08' E 118°28'1 2.4
2018-Jun-20 07:30N 24°09' E 118°28'1 2.3
2018-Jun-20 07:00N 24°08' E 118°28'1 2.4
2018-Jun-20 06:30N 24°06' E 118°27'1 2.5
2018-Jun-20 06:00N 24°05' E 118°27'1 2.7
2018-Jun-20 05:30N 24°04' E 118°27'1 2.9
2018-Jun-20 05:00N 24°03' E 118°26'2 3.0
2018-Jun-20 04:29N 24°01' E 118°25'1 2.7
2018-Jun-20 04:00N 24°01' E 118°23'510.7
2018-Jun-20 03:30N 23°58' E 118°18'713.6
2018-Jun-20 03:00N 23°54' E 118°13'713.2
2018-Jun-20 02:30N 23°49' E 118°08'612.0
2018-Jun-20 02:00N 23°44' E 118°04'510.6
2018-Jun-20 01:30N 23°40' E 118°00'510.4
2018-Jun-20 01:00N 23°36' E 117°57'510.1
2018-Jun-20 00:30N 23°32' E 117°54'5 9.8
2018-Jun-20 00:00N 23°28' E 117°51'5 9.8
2018-Jun-19 23:30N 23°23' E 117°48'5 9.8
2018-Jun-19 23:00N 23°19' E 117°46'510.0
2018-Jun-19 22:30N 23°14' E 117°44'  
2018-Jun-14 22:49N 01°31' E 104°36'618.2
2018-Jun-14 22:29N 01°27' E 104°31'918.7
2018-Jun-14 22:00N 01°21' E 104°24'918.2
2018-Jun-14 21:30N 01°17' E 104°16'1018.8
2018-Jun-14 21:00N 01°16' E 104°07'919.2
2018-Jun-14 20:31N 01°14' E 103°58'816.4
2018-Jun-14 20:00N 01°12' E 103°50'5 9.4
2018-Jun-14 19:30N 01°15' E 103°46'2 3.5
2018-Jun-14 19:00N 01°17' E 103°45'0 0.3
2018-Jun-14 18:30N 01°17' E 103°45'0 0.0
2018-Jun-14 18:00N 01°17' E 103°45'0 0.0
2018-Jun-14 17:29N 01°17' E 103°45'0 0.0
2018-Jun-14 16:58N 01°17' E 103°45'0 0.0
2018-Jun-14 16:28N 01°17' E 103°45'0 0.0
2018-Jun-14 15:59N 01°17' E 103°45'0 0.0
2018-Jun-14 15:28N 01°17' E 103°45'0 0.0
2018-Jun-14 14:59N 01°17' E 103°45'0 0.0
2018-Jun-14 14:29N 01°17' E 103°45'0 0.0
2018-Jun-14 13:59N 01°17' E 103°45'0 0.0
2018-Jun-14 13:29N 01°17' E 103°45'0 0.0
2018-Jun-14 12:58N 01°17' E 103°45'0 0.0
2018-Jun-14 12:26N 01°17' E 103°45'0 0.0
2018-Jun-14 11:58N 01°17' E 103°45'0 0.0
2018-Jun-14 11:28N 01°17' E 103°45'0 0.0
2018-Jun-14 10:58N 01°17' E 103°45'0 0.0
2018-Jun-14 10:28N 01°17' E 103°45'0 0.0
2018-Jun-14 09:56N 01°17' E 103°45'0 0.0
2018-Jun-14 09:29N 01°17' E 103°45'0 0.0
2018-Jun-14 08:59N 01°17' E 103°45'0 0.0
2018-Jun-14 08:26N 01°17' E 103°45'0 0.0
2018-Jun-14 07:59N 01°17' E 103°45'0 0.0
2018-Jun-14 07:26N 01°17' E 103°45'0 0.0
2018-Jun-14 06:47N 01°17' E 103°45'0 0.0
2018-Jun-14 06:28N 01°17' E 103°45'0 0.0
2018-Jun-14 05:50N 01°17' E 103°45'0 0.0
2018-Jun-14 05:22N 01°17' E 103°45'0 0.0
2018-Jun-14 04:59N 01°17' E 103°45'0 0.0
2018-Jun-14 04:29N 01°17' E 103°45'0 0.0
2018-Jun-14 03:58N 01°17' E 103°45'0 0.0
2018-Jun-14 03:29N 01°17' E 103°45'0 0.0
2018-Jun-14 02:55N 01°17' E 103°45'0 0.0
2018-Jun-14 02:28N 01°17' E 103°45'0 0.0
2018-Jun-14 01:50N 01°17' E 103°45'0 0.0
2018-Jun-14 01:28N 01°17' E 103°45'0 0.0
2018-Jun-14 00:59N 01°17' E 103°45'0 0.0
2018-Jun-14 00:28N 01°17' E 103°45'0 0.0
2018-Jun-13 23:58N 01°17' E 103°45'0 0.0
2018-Jun-13 23:29N 01°17' E 103°45'0 0.0
2018-Jun-13 22:58N 01°17' E 103°45'0 0.0
2018-Jun-13 22:29N 01°17' E 103°45'0 0.0
2018-Jun-13 21:59N 01°17' E 103°45'0 0.0
2018-Jun-13 21:28N 01°17' E 103°45'0 0.0
2018-Jun-13 20:59N 01°17' E 103°45'0 0.0
2018-Jun-13 20:28N 01°17' E 103°45'0 0.0
2018-Jun-13 19:58N 01°17' E 103°45'0 0.0
2018-Jun-13 19:29N 01°17' E 103°45'0 0.0
2018-Jun-13 18:58N 01°17' E 103°45'0 0.0
2018-Jun-13 18:29N 01°17' E 103°45'0 0.0
2018-Jun-13 17:59N 01°17' E 103°45'0 0.0
2018-Jun-13 17:29N 01°17' E 103°45'0 0.0
2018-Jun-13 16:56N 01°17' E 103°45'0 0.0
2018-Jun-13 16:28N 01°17' E 103°45'0 0.0
2018-Jun-13 15:58N 01°17' E 103°45'0 0.4
2018-Jun-13 15:30N 01°17' E 103°45'2 3.6
2018-Jun-13 15:00N 01°15' E 103°46'4 8.3
2018-Jun-13 14:30N 01°14' E 103°42'510.4
2018-Jun-13 14:00N 01°12' E 103°37'2 4.5
2018-Jun-13 13:27N 01°11' E 103°35'3 6.1
2018-Jun-13 13:00N 01°10' E 103°32'4 7.3
2018-Jun-13 12:31N 01°10' E 103°28'4 8.1
2018-Jun-13 12:00N 01°12' E 103°25'5 9.1
2018-Jun-13 11:29N 01°15' E 103°21'5 9.7
2018-Jun-13 11:00N 01°18' E 103°18'5 9.6
2018-Jun-13 10:28N 01°21' E 103°14'610.6
2018-Jun-13 09:56N 01°25' E 103°10'611.8
2018-Jun-13 09:27N 01°28' E 103°05'  
Track history (hours):
 
Tides and Currents Weather Stations Pressure Air Temp Water Temp Dewpoint Dewpoint Depression Visibility Wind Speed Wind Dir Waves Ship Positions

MSC Istanbul

Last reported at 2018-Jun-21 15:35 UTC. Time now 2018-Jun-23 10:06 UTC.
Position N 24°24' E 118°53'.

Length 399 m; draft 8.8 m.

Type: Cargo ship. MMSI: 636017537.

Date/timePositionNaut miles runAvg speedWind from/ knotsBaromVisibWave heightAir tempDewpointWater temp
2018-Jun-21 15:35N 24°24' E 118°53'420.6
2018-Jun-21 15:25N 24°22' E 118°50'820.2
2018-Jun-21 15:00N 24°18' E 118°43'918.5
2018-Jun-21 14:30N 24°13' E 118°34'918.7
2018-Jun-21 14:00N 24°09' E 118°25'816.8
2018-Jun-21 13:31N 24°13' E 118°17'714.0
2018-Jun-21 13:00N 24°18' E 118°12'612.3
2018-Jun-21 12:30N 24°23' E 118°07'610.8
2018-Jun-21 12:00N 24°26' E 118°02'1 1.4
2018-Jun-21 11:30N 24°26' E 118°02'0 0.1
2018-Jun-21 11:00N 24°26' E 118°02'0 0.0
2018-Jun-21 10:29N 24°26' E 118°02'0 0.0
2018-Jun-21 09:59N 24°26' E 118°02'0 0.0
2018-Jun-21 09:29N 24°26' E 118°02'0 0.0
2018-Jun-21 08:59N 24°26' E 118°02'0 0.0
2018-Jun-21 08:29N 24°26' E 118°02'0 0.1
2018-Jun-21 07:59N 24°26' E 118°02'0 0.1
2018-Jun-21 07:29N 24°26' E 118°02'0 0.1
2018-Jun-21 06:59N 24°26' E 118°02'0 0.1
2018-Jun-21 06:29N 24°26' E 118°02'0 0.0
2018-Jun-21 05:59N 24°26' E 118°02'0 0.0
2018-Jun-21 05:29N 24°26' E 118°02'0 0.1
2018-Jun-21 04:59N 24°26' E 118°02'0 0.1
2018-Jun-21 04:29N 24°26' E 118°02'0 0.0
2018-Jun-21 03:59N 24°26' E 118°02'0 0.1
2018-Jun-21 03:26N 24°26' E 118°02'0 0.1
2018-Jun-21 02:56N 24°26' E 118°02'0 0.0
2018-Jun-21 02:29N 24°26' E 118°02'0 0.0
2018-Jun-21 01:59N 24°26' E 118°02'0 0.0
2018-Jun-21 01:29N 24°26' E 118°02'0 0.1
2018-Jun-21 00:59N 24°26' E 118°02'0 0.0
2018-Jun-21 00:29N 24°26' E 118°02'0 0.0
2018-Jun-20 23:59N 24°26' E 118°02'0 0.1
2018-Jun-20 23:26N 24°26' E 118°02'0 0.1
2018-Jun-20 22:59N 24°26' E 118°02'0 0.1
2018-Jun-20 22:29N 24°26' E 118°02'0 0.0
2018-Jun-20 21:59N 24°26' E 118°02'0 0.0
2018-Jun-20 21:29N 24°26' E 118°02'0 0.0
2018-Jun-20 20:59N 24°26' E 118°02'0 0.0
2018-Jun-20 20:29N 24°26' E 118°02'0 0.0
2018-Jun-20 19:59N 24°26' E 118°02'0 0.1
2018-Jun-20 19:29N 24°26' E 118°02'0 0.0
2018-Jun-20 18:59N 24°26' E 118°02'0 0.1
2018-Jun-20 18:29N 24°26' E 118°02'0 0.0
2018-Jun-20 17:59N 24°26' E 118°02'0 0.0
2018-Jun-20 17:29N 24°26' E 118°02'0 0.1
2018-Jun-20 16:59N 24°26' E 118°02'0 0.0
2018-Jun-20 16:29N 24°26' E 118°02'0 0.1
2018-Jun-20 15:59N 24°26' E 118°02'0 0.2
2018-Jun-20 15:30N 24°26' E 118°02'2 4.7
2018-Jun-20 15:00N 24°25' E 118°04'5 9.6
2018-Jun-20 14:30N 24°22' E 118°08'510.9
2018-Jun-20 14:00N 24°18' E 118°12'510.0
2018-Jun-20 13:30N 24°15' E 118°16'611.0
2018-Jun-20 13:00N 24°11' E 118°20'510.3
2018-Jun-20 12:30N 24°07' E 118°24'4 7.4
2018-Jun-20 12:00N 24°04' E 118°27'1 1.1
2018-Jun-20 11:30N 24°04' E 118°27'1 1.1
2018-Jun-20 10:59N 24°03' E 118°27'1 1.2
2018-Jun-20 10:30N 24°03' E 118°27'1 1.3
2018-Jun-20 10:00N 24°02' E 118°27'1 1.5
2018-Jun-20 09:30N 24°01' E 118°27'1 1.6
2018-Jun-20 09:00N 24°01' E 118°26'2 4.5
2018-Jun-20 08:30N 24°03' E 118°26'5 8.9
2018-Jun-20 08:00N 24°08' E 118°28'1 2.4
2018-Jun-20 07:30N 24°09' E 118°28'1 2.3
2018-Jun-20 07:00N 24°08' E 118°28'1 2.4
2018-Jun-20 06:30N 24°06' E 118°27'1 2.5
2018-Jun-20 06:00N 24°05' E 118°27'1 2.7
2018-Jun-20 05:30N 24°04' E 118°27'1 2.9
2018-Jun-20 05:00N 24°03' E 118°26'2 3.0
2018-Jun-20 04:29N 24°01' E 118°25'1 2.7
2018-Jun-20 04:00N 24°01' E 118°23'510.7
2018-Jun-20 03:30N 23°58' E 118°18'713.6
2018-Jun-20 03:00N 23°54' E 118°13'713.2
2018-Jun-20 02:30N 23°49' E 118°08'612.0
2018-Jun-20 02:00N 23°44' E 118°04'510.6
2018-Jun-20 01:30N 23°40' E 118°00'510.4
2018-Jun-20 01:00N 23°36' E 117°57'510.1
2018-Jun-20 00:30N 23°32' E 117°54'5 9.8
2018-Jun-20 00:00N 23°28' E 117°51'5 9.8
2018-Jun-19 23:30N 23°23' E 117°48'5 9.8
2018-Jun-19 23:00N 23°19' E 117°46'510.0
2018-Jun-19 22:30N 23°14' E 117°44'  
2018-Jun-14 22:49N 01°31' E 104°36'618.2
2018-Jun-14 22:29N 01°27' E 104°31'918.7
2018-Jun-14 22:00N 01°21' E 104°24'918.2
2018-Jun-14 21:30N 01°17' E 104°16'1018.8
2018-Jun-14 21:00N 01°16' E 104°07'919.2
2018-Jun-14 20:31N 01°14' E 103°58'816.4
2018-Jun-14 20:00N 01°12' E 103°50'5 9.4
2018-Jun-14 19:30N 01°15' E 103°46'2 3.5
2018-Jun-14 19:00N 01°17' E 103°45'0 0.3
2018-Jun-14 18:30N 01°17' E 103°45'0 0.0
2018-Jun-14 18:00N 01°17' E 103°45'0 0.0
2018-Jun-14 17:29N 01°17' E 103°45'0 0.0
2018-Jun-14 16:58N 01°17' E 103°45'0 0.0
2018-Jun-14 16:28N 01°17' E 103°45'0 0.0
2018-Jun-14 15:59N 01°17' E 103°45'0 0.0
2018-Jun-14 15:28N 01°17' E 103°45'0 0.0
2018-Jun-14 14:59N 01°17' E 103°45'0 0.0
2018-Jun-14 14:29N 01°17' E 103°45'0 0.0
2018-Jun-14 13:59N 01°17' E 103°45'0 0.0
2018-Jun-14 13:29N 01°17' E 103°45'0 0.0
2018-Jun-14 12:58N 01°17' E 103°45'0 0.0
2018-Jun-14 12:26N 01°17' E 103°45'0 0.0
2018-Jun-14 11:58N 01°17' E 103°45'0 0.0
2018-Jun-14 11:28N 01°17' E 103°45'0 0.0
2018-Jun-14 10:58N 01°17' E 103°45'0 0.0
2018-Jun-14 10:28N 01°17' E 103°45'0 0.0
2018-Jun-14 09:56N 01°17' E 103°45'0 0.0
2018-Jun-14 09:29N 01°17' E 103°45'0 0.0
2018-Jun-14 08:59N 01°17' E 103°45'0 0.0
2018-Jun-14 08:26N 01°17' E 103°45'0 0.0
2018-Jun-14 07:59N 01°17' E 103°45'0 0.0
2018-Jun-14 07:26N 01°17' E 103°45'0 0.0
2018-Jun-14 06:47N 01°17' E 103°45'0 0.0
2018-Jun-14 06:28N 01°17' E 103°45'0 0.0
2018-Jun-14 05:50N 01°17' E 103°45'0 0.0
2018-Jun-14 05:22N 01°17' E 103°45'0 0.0
2018-Jun-14 04:59N 01°17' E 103°45'0 0.0
2018-Jun-14 04:29N 01°17' E 103°45'0 0.0
2018-Jun-14 03:58N 01°17' E 103°45'0 0.0
2018-Jun-14 03:29N 01°17' E 103°45'0 0.0
2018-Jun-14 02:55N 01°17' E 103°45'0 0.0
2018-Jun-14 02:28N 01°17' E 103°45'0 0.0
2018-Jun-14 01:50N 01°17' E 103°45'0 0.0
2018-Jun-14 01:28N 01°17' E 103°45'0 0.0
2018-Jun-14 00:59N 01°17' E 103°45'0 0.0
2018-Jun-14 00:28N 01°17' E 103°45'0 0.0
2018-Jun-13 23:58N 01°17' E 103°45'0 0.0
2018-Jun-13 23:29N 01°17' E 103°45'0 0.0
2018-Jun-13 22:58N 01°17' E 103°45'0 0.0
2018-Jun-13 22:29N 01°17' E 103°45'0 0.0
2018-Jun-13 21:59N 01°17' E 103°45'0 0.0
2018-Jun-13 21:28N 01°17' E 103°45'0 0.0
2018-Jun-13 20:59N 01°17' E 103°45'0 0.0
2018-Jun-13 20:28N 01°17' E 103°45'0 0.0
2018-Jun-13 19:58N 01°17' E 103°45'0 0.0
2018-Jun-13 19:29N 01°17' E 103°45'0 0.0
2018-Jun-13 18:58N 01°17' E 103°45'0 0.0
2018-Jun-13 18:29N 01°17' E 103°45'0 0.0
2018-Jun-13 17:59N 01°17' E 103°45'0 0.0
2018-Jun-13 17:29N 01°17' E 103°45'0 0.0
2018-Jun-13 16:56N 01°17' E 103°45'0 0.0
2018-Jun-13 16:28N 01°17' E 103°45'0 0.0
2018-Jun-13 15:58N 01°17' E 103°45'0 0.4
2018-Jun-13 15:30N 01°17' E 103°45'2 3.6
2018-Jun-13 15:00N 01°15' E 103°46'4 8.3
2018-Jun-13 14:30N 01°14' E 103°42'510.4
2018-Jun-13 14:00N 01°12' E 103°37'2 4.5
2018-Jun-13 13:27N 01°11' E 103°35'3 6.1
2018-Jun-13 13:00N 01°10' E 103°32'4 7.3
2018-Jun-13 12:31N 01°10' E 103°28'4 8.1
2018-Jun-13 12:00N 01°12' E 103°25'5 9.1
2018-Jun-13 11:29N 01°15' E 103°21'5 9.7
2018-Jun-13 11:00N 01°18' E 103°18'5 9.6
2018-Jun-13 10:28N 01°21' E 103°14'610.6
2018-Jun-13 09:56N 01°25' E 103°10'611.8
2018-Jun-13 09:27N 01°28' E 103°05'  

Dump ship's entire track history